Time;durP1;ratioP1;P1;durP2;ratioP2;P2;SDS_P1;SDS_P2;PMS_P1;PMS_P2;Temp;Humidity;BMP_temperature;BMP_pressure;BME280_temperature;BME280_humidity;BME280_pressure;Samples;Min_cycle;Max_cycle;Signal;HPM_P1;HPM_P2
2022/01/15 00:00:06;;;;;;;60.70;21.80;;;6.70;99.90;;;;;;5019569;28;20599;-75
2022/01/15 00:02:32;;;;;;;40.55;19.35;;;6.70;99.90;;;;;;5005770;28;20503;-75
2022/01/15 00:04:58;;;;;;;90.43;24.42;;;6.70;99.90;;;;;;4991287;28;20042;-75
2022/01/15 00:07:23;;;;;;;82.15;22.65;;;6.80;99.90;;;;;;5021746;28;20444;-75
2022/01/15 00:09:50;;;;;;;83.30;22.88;;;6.80;99.90;;;;;;5004577;28;20080;-76
2022/01/15 00:12:16;;;;;;;34.13;17.25;;;6.80;99.90;;;;;;5005843;28;20129;-76
2022/01/15 00:14:43;;;;;;;37.25;18.95;;;6.80;99.90;;;;;;5022844;28;20068;-75
2022/01/15 00:17:43;;;;;;;41.30;18.52;;;6.80;99.90;;;;;;4977235;28;20052;-75
2022/01/15 00:20:07;;;;;;;41.72;19.52;;;6.80;99.90;;;;;;5018562;28;20399;-75
2022/01/15 00:22:33;;;;;;;37.28;18.70;;;6.70;99.90;;;;;;4998868;28;20042;-75
2022/01/15 00:24:59;;;;;;;50.97;19.63;;;6.80;99.90;;;;;;5023517;28;20071;-75
2022/01/15 00:27:25;;;;;;;41.50;17.77;;;6.70;99.90;;;;;;5022910;28;20045;-75
2022/01/15 00:29:51;;;;;;;61.83;21.20;;;6.70;99.90;;;;;;5011750;28;20392;-75
2022/01/15 00:32:16;;;;;;;111.40;23.98;;;6.70;99.90;;;;;;5025002;28;20044;-75
2022/01/15 00:34:42;;;;;;;67.45;20.75;;;6.70;99.90;;;;;;5004909;28;20056;-75
2022/01/15 00:37:08;;;;;;;117.75;24.98;;;6.70;99.90;;;;;;4999592;28;20037;-75
2022/01/15 00:39:34;;;;;;;44.83;19.58;;;6.70;99.90;;;;;;5012381;28;20051;-75
2022/01/15 00:42:00;;;;;;;76.22;21.45;;;6.70;99.90;;;;;;5042760;28;20555;-75
2022/01/15 00:44:26;;;;;;;45.78;19.23;;;6.70;99.90;;;;;;5005573;28;20049;-75
2022/01/15 00:46:51;;;;;;;102.82;22.25;;;6.70;99.90;;;;;;5025687;28;20069;-76
2022/01/15 00:49:17;;;;;;;32.28;15.73;;;6.70;99.90;;;;;;5028894;28;20052;-75
2022/01/15 00:51:43;;;;;;;35.50;16.52;;;6.70;99.90;;;;;;5029604;28;20049;-75
2022/01/15 00:54:09;;;;;;;38.33;17.23;;;6.70;99.90;;;;;;5030307;28;20552;-75
2022/01/15 00:56:35;;;;;;;56.85;19.25;;;6.70;99.90;;;;;;5048120;28;20079;-75
2022/01/15 00:59:00;;;;;;;45.58;18.15;;;6.70;99.90;;;;;;5029842;28;20064;-75
2022/01/15 01:01:26;;;;;;;40.15;16.38;;;6.70;99.90;;;;;;5046403;28;20052;-75
2022/01/15 01:03:52;;;;;;;43.03;17.35;;;6.60;99.90;;;;;;5012712;28;20518;-75
2022/01/15 01:06:21;;;;;;;35.20;16.10;;;6.60;99.90;;;;;;5028923;28;20140;-75
2022/01/15 01:08:47;;;;;;;84.25;21.65;;;6.60;99.90;;;;;;5028798;28;20064;-75
2022/01/15 01:11:22;;;;;;;76.45;21.00;;;6.70;99.90;;;;;;5011596;28;20751;-75
2022/01/15 01:24:32;;;;;;;37.63;16.58;;;6.60;99.90;;;;;;5017533;28;20132;-75
2022/01/15 01:27:11;;;;;;;36.15;16.23;;;6.60;99.90;;;;;;5009468;28;20037;-75
2022/01/15 01:34:32;;;;;;;51.03;16.60;;;6.60;99.90;;;;;;4993531;28;20042;-75
2022/01/15 01:37:06;;;;;;;28.35;13.38;;;6.60;99.90;;;;;;4996906;28;20103;-75
2022/01/15 01:39:55;;;;;;;35.35;14.73;;;6.60;99.90;;;;;;5014325;28;20049;-75
2022/01/15 01:45:09;;;;;;;65.15;17.95;;;6.60;99.90;;;;;;4996884;28;20103;-76
2022/01/15 01:47:42;;;;;;;69.70;17.30;;;6.60;99.90;;;;;;5006955;28;20060;-75
2022/01/15 01:50:10;;;;;;;48.47;16.17;;;6.60;99.90;;;;;;5011270;28;20064;-75
2022/01/15 01:52:37;;;;;;;26.98;13.30;;;6.60;99.90;;;;;;5013397;28;20049;-75
2022/01/15 01:55:03;;;;;;;34.92;15.05;;;6.60;99.90;;;;;;5012005;28;20125;-76
2022/01/15 01:57:29;;;;;;;50.33;16.98;;;6.60;99.90;;;;;;4993759;28;20518;-75
2022/01/15 01:59:55;;;;;;;59.75;15.82;;;6.60;99.90;;;;;;5026196;28;20053;-75
2022/01/15 02:02:20;;;;;;;68.60;15.90;;;6.60;99.90;;;;;;4994489;28;20052;-75
2022/01/15 02:04:46;;;;;;;58.65;15.10;;;6.50;99.90;;;;;;4995968;28;20535;-76
2022/01/15 02:07:13;;;;;;;44.72;13.50;;;6.60;99.90;;;;;;5012546;28;20124;-75
2022/01/15 02:09:40;;;;;;;42.92;14.90;;;6.60;99.90;;;;;;4995735;28;20052;-75
2022/01/15 02:12:06;;;;;;;48.25;14.77;;;6.50;99.90;;;;;;4995665;28;20037;-75
2022/01/15 02:14:32;;;;;;;22.02;11.63;;;6.60;99.90;;;;;;4994546;28;20044;-75
2022/01/15 02:16:59;;;;;;;20.20;10.93;;;6.60;99.90;;;;;;4996953;28;20033;-75
2022/01/15 02:19:30;;;;;;;22.60;11.57;;;6.60;99.90;;;;;;5011954;28;20053;-75
2022/01/15 02:24:40;;;;;;;45.00;14.25;;;6.60;99.90;;;;;;5014902;28;20059;-75
2022/01/15 02:27:06;;;;;;;44.25;14.23;;;6.60;99.90;;;;;;5013247;28;20119;-75
2022/01/15 02:29:32;;;;;;;28.08;12.82;;;6.60;99.90;;;;;;5046944;28;20049;-76
2022/01/15 02:31:57;;;;;;;28.80;12.40;;;6.60;99.90;;;;;;5030013;28;20056;-75
2022/01/15 02:34:23;;;;;;;22.17;12.10;;;6.50;99.90;;;;;;5032828;28;20041;-75
2022/01/15 02:36:49;;;;;;;47.20;14.70;;;6.60;99.90;;;;;;5031815;28;20045;-75
2022/01/15 02:39:15;;;;;;;60.08;15.25;;;6.60;99.90;;;;;;5030096;28;20044;-75
2022/01/15 02:41:41;;;;;;;31.60;12.43;;;6.60;99.90;;;;;;5028489;28;20155;-76
2022/01/15 02:44:15;;;;;;;42.13;14.38;;;6.60;99.90;;;;;;5014708;28;20033;-76
2022/01/15 02:49:16;;;;;;;43.30;13.35;;;6.60;99.90;;;;;;5029550;28;20083;-75
2022/01/15 02:51:42;;;;;;;44.67;12.68;;;6.60;99.90;;;;;;5050011;28;20044;-75
2022/01/15 02:54:08;;;;;;;33.30;12.30;;;6.50;99.90;;;;;;5049371;28;20033;-75
2022/01/15 02:56:40;;;;;;;44.28;12.80;;;6.50;99.90;;;;;;5014714;28;20094;-75
2022/01/15 02:59:09;;;;;;;38.00;13.30;;;6.50;99.90;;;;;;5032344;28;20068;-75
2022/01/15 03:01:35;;;;;;;47.58;13.90;;;6.50;99.90;;;;;;5057874;28;20101;-75
2022/01/15 03:04:02;;;;;;;44.05;13.10;;;6.50;99.90;;;;;;5043849;28;20120;-75
2022/01/15 03:06:28;;;;;;;33.42;11.60;;;6.50;99.90;;;;;;5032549;28;20634;-75
2022/01/15 03:08:57;;;;;;;30.90;11.32;;;6.50;99.90;;;;;;5040989;28;20048;-75
2022/01/15 03:11:23;;;;;;;38.97;12.23;;;6.50;99.90;;;;;;5031239;28;20048;-75
2022/01/15 03:13:49;;;;;;;43.30;13.02;;;6.50;99.90;;;;;;5032533;28;20125;-76
2022/01/15 03:16:18;;;;;;;45.95;13.30;;;6.50;99.90;;;;;;4993310;28;20531;-75
2022/01/15 03:18:44;;;;;;;34.30;12.23;;;6.50;99.90;;;;;;5030697;28;20059;-75
2022/01/15 03:21:10;;;;;;;29.83;11.25;;;6.50;99.90;;;;;;5048033;28;20041;-75
2022/01/15 03:23:36;;;;;;;21.67;10.45;;;6.40;99.90;;;;;;5046263;28;20056;-75
2022/01/15 03:26:03;;;;;;;15.35;8.43;;;6.40;99.90;;;;;;4998694;28;20049;-75
2022/01/15 03:28:29;;;;;;;14.38;7.55;;;6.40;99.90;;;;;;5035915;28;20048;-75
2022/01/15 03:30:57;;;;;;;21.38;8.95;;;6.40;99.90;;;;;;5034886;28;20126;-75
2022/01/15 03:33:23;;;;;;;19.75;9.05;;;6.40;99.90;;;;;;5050215;28;20163;-75
2022/01/15 03:35:49;;;;;;;27.83;10.32;;;6.40;99.90;;;;;;5031178;28;20052;-75
2022/01/15 03:38:15;;;;;;;20.35;10.15;;;6.30;99.90;;;;;;5047578;28;20049;-75
2022/01/15 03:40:41;;;;;;;21.98;10.55;;;6.40;99.90;;;;;;5045402;28;20048;-76
2022/01/15 03:43:07;;;;;;;27.83;11.38;;;6.40;99.90;;;;;;5016080;28;20368;-75
2022/01/15 03:45:34;;;;;;;20.98;9.52;;;6.30;99.90;;;;;;5027166;28;20049;-75
2022/01/15 03:48:00;;;;;;;26.58;9.13;;;6.30;99.90;;;;;;5042070;28;20056;-76
2022/01/15 03:50:27;;;;;;;21.45;8.98;;;6.30;99.90;;;;;;5046858;28;20391;-75
2022/01/15 03:52:54;;;;;;;16.30;7.85;;;6.40;99.90;;;;;;5013108;28;20048;-75
2022/01/15 03:55:21;;;;;;;26.02;9.98;;;6.30;99.90;;;;;;5027093;28;20124;-75
2022/01/15 03:57:47;;;;;;;30.75;10.50;;;6.40;99.90;;;;;;5009830;28;20115;-75
2022/01/15 04:00:22;;;;;;;25.65;10.68;;;6.30;99.90;;;;;;4997683;28;20447;-75
2022/01/15 04:02:48;;;;;;;15.18;8.75;;;6.30;99.90;;;;;;5040951;28;20378;-75
2022/01/15 04:05:15;;;;;;;15.90;7.88;;;6.30;99.90;;;;;;5068753;28;20044;-75
2022/01/15 04:07:41;;;;;;;18.15;8.73;;;6.30;99.90;;;;;;5035591;28;20542;-75
2022/01/15 04:10:10;;;;;;;18.13;8.80;;;6.30;99.90;;;;;;5040190;28;20053;-75
2022/01/15 04:12:36;;;;;;;21.55;10.07;;;6.30;99.90;;;;;;5012973;28;20051;-75
2022/01/15 04:15:03;;;;;;;22.08;9.50;;;6.30;99.90;;;;;;5029617;28;20435;-75
2022/01/15 04:17:29;;;;;;;18.95;8.90;;;6.20;99.90;;;;;;5013031;28;20059;-75
2022/01/15 04:19:58;;;;;;;19.73;9.43;;;6.30;99.90;;;;;;5029284;28;20056;-75
2022/01/15 04:22:25;;;;;;;23.77;10.13;;;6.20;99.90;;;;;;5004990;28;20132;-75
2022/01/15 04:24:51;;;;;;;19.50;9.83;;;6.20;99.90;;;;;;5007854;28;20053;-75
2022/01/15 04:27:21;;;;;;;23.65;10.40;;;6.20;99.90;;;;;;5032029;28;20132;-75
2022/01/15 04:29:47;;;;;;;27.40;10.52;;;6.30;99.90;;;;;;5032091;28;20055;-75
2022/01/15 04:32:13;;;;;;;42.72;12.25;;;6.30;99.90;;;;;;5048381;28;20057;-75
2022/01/15 04:34:40;;;;;;;35.28;10.52;;;6.20;99.90;;;;;;5064884;28;20451;-75
2022/01/15 04:37:14;;;;;;;27.08;10.13;;;6.30;99.90;;;;;;5014600;28;20457;-75
2022/01/15 04:39:42;;;;;;;26.45;10.40;;;6.30;99.90;;;;;;5031542;28;20067;-75
2022/01/15 04:42:09;;;;;;;20.08;9.57;;;6.30;99.90;;;;;;5041639;28;20045;-75
2022/01/15 04:44:35;;;;;;;36.75;12.73;;;6.20;99.90;;;;;;4995552;28;20128;-75
2022/01/15 04:47:03;;;;;;;30.77;11.35;;;6.30;99.90;;;;;;4979640;28;20460;-75
2022/01/15 04:49:32;;;;;;;29.33;11.73;;;6.30;99.90;;;;;;5011700;28;20128;-75
2022/01/15 04:52:00;;;;;;;19.75;8.80;;;6.30;99.90;;;;;;5011648;28;20180;-75
2022/01/15 04:54:26;;;;;;;25.45;10.82;;;6.30;99.90;;;;;;4991238;28;20033;-75
2022/01/15 04:56:52;;;;;;;21.98;10.05;;;6.30;99.90;;;;;;5044432;28;20045;-75
2022/01/15 04:59:18;;;;;;;41.78;12.43;;;6.30;99.90;;;;;;5046169;28;20571;-75
2022/01/15 05:01:44;;;;;;;44.78;13.15;;;6.20;99.90;;;;;;5034202;28;20044;-74
2022/01/15 05:04:09;;;;;;;39.53;11.85;;;6.20;99.90;;;;;;5008480;28;20109;-74
2022/01/15 05:06:35;;;;;;;20.95;9.80;;;6.30;99.90;;;;;;5026709;28;20102;-74
2022/01/15 05:09:05;;;;;;;17.75;9.15;;;6.20;99.90;;;;;;5027868;28;20790;-74
2022/01/15 05:14:12;;;;;;;21.40;9.80;;;6.20;99.90;;;;;;5027282;28;20052;-74
2022/01/15 05:16:38;;;;;;;16.30;8.30;;;6.20;99.90;;;;;;5010041;28;20396;-74
2022/01/15 05:19:04;;;;;;;19.63;9.38;;;6.20;99.90;;;;;;5011107;28;20039;-74
2022/01/15 05:21:31;;;;;;;18.65;9.00;;;6.20;99.90;;;;;;4993538;28;20132;-74
2022/01/15 05:23:56;;;;;;;24.23;9.55;;;6.20;99.90;;;;;;5023922;28;20056;-74
2022/01/15 05:26:22;;;;;;;30.80;10.65;;;6.20;99.90;;;;;;5027545;28;20139;-74
2022/01/15 05:28:48;;;;;;;31.95;9.93;;;6.20;99.90;;;;;;5029572;28;20053;-74
2022/01/15 05:31:14;;;;;;;37.15;11.40;;;6.20;99.90;;;;;;5026480;28;20120;-74
2022/01/15 05:33:40;;;;;;;34.17;11.27;;;6.20;99.90;;;;;;5042962;28;20407;-75
2022/01/15 05:36:05;;;;;;;26.43;10.50;;;6.20;99.90;;;;;;5029218;28;20064;-74
2022/01/15 05:38:31;;;;;;;26.20;10.80;;;6.20;99.90;;;;;;5029079;28;20106;-74
2022/01/15 05:40:57;;;;;;;21.80;9.95;;;6.20;99.90;;;;;;5017410;28;20043;-74
2022/01/15 05:43:23;;;;;;;28.13;10.93;;;6.20;99.90;;;;;;5012558;28;20514;-74
2022/01/15 05:45:49;;;;;;;21.17;9.38;;;6.20;99.90;;;;;;5030157;28;20049;-74
2022/01/15 05:48:15;;;;;;;29.40;10.33;;;6.20;99.90;;;;;;5010655;28;20045;-74
2022/01/15 05:50:41;;;;;;;33.78;11.48;;;6.20;99.90;;;;;;5029089;28;20041;-74
2022/01/15 05:53:07;;;;;;;25.70;11.13;;;6.20;99.90;;;;;;5012392;28;20114;-74
2022/01/15 05:55:33;;;;;;;31.05;11.73;;;6.20;99.90;;;;;;5044118;28;20060;-74
2022/01/15 05:57:58;;;;;;;19.65;9.80;;;6.20;99.90;;;;;;5030767;28;20488;-74
2022/01/15 06:00:25;;;;;;;19.85;9.57;;;6.10;99.90;;;;;;4980906;28;20090;-74
2022/01/15 06:02:50;;;;;;;25.58;10.68;;;6.10;99.90;;;;;;5028583;28;20037;-74
2022/01/15 06:05:16;;;;;;;32.10;11.00;;;6.10;99.90;;;;;;5027867;28;20048;-74
2022/01/15 06:07:42;;;;;;;28.70;11.02;;;6.10;99.90;;;;;;5029680;28;20056;-75
2022/01/15 06:10:08;;;;;;;27.70;10.63;;;6.10;99.90;;;;;;5027850;28;20549;-74
2022/01/15 06:12:42;;;;;;;19.17;10.33;;;6.10;99.90;;;;;;5010805;28;20120;-74
2022/01/15 06:15:13;;;;;;;18.98;9.07;;;6.10;99.90;;;;;;5028658;28;20037;-74
2022/01/15 06:17:39;;;;;;;20.15;10.48;;;6.10;99.90;;;;;;5028768;28;20117;-74
2022/01/15 06:20:05;;;;;;;21.67;10.53;;;6.00;99.90;;;;;;5028940;28;20053;-74
2022/01/15 06:22:31;;;;;;;21.98;10.52;;;6.00;99.90;;;;;;5045574;28;20055;-74
2022/01/15 06:24:57;;;;;;;22.98;11.38;;;6.00;99.90;;;;;;5032207;28;20045;-74
2022/01/15 06:27:23;;;;;;;23.25;10.90;;;6.00;99.90;;;;;;5016054;28;20491;-74
2022/01/15 06:29:48;;;;;;;23.77;11.10;;;6.00;99.90;;;;;;5050564;28;20055;-74
2022/01/15 06:32:14;;;;;;;23.10;10.40;;;6.00;99.90;;;;;;5015999;28;20348;-74
2022/01/15 06:34:40;;;;;;;22.35;11.25;;;6.00;99.90;;;;;;5014826;28;20044;-74
2022/01/15 06:37:06;;;;;;;24.90;11.25;;;6.00;99.90;;;;;;5027466;28;20045;-74
2022/01/15 06:39:36;;;;;;;26.95;11.63;;;6.00;99.90;;;;;;5050253;28;20052;-74
2022/01/15 06:42:02;;;;;;;21.00;10.70;;;6.00;99.90;;;;;;5030546;28;20398;-74
2022/01/15 06:44:27;;;;;;;18.48;9.15;;;5.90;99.90;;;;;;5049071;28;20151;-74
2022/01/15 06:46:54;;;;;;;14.98;7.72;;;5.90;99.90;;;;;;5034367;28;20080;-74
2022/01/15 06:49:21;;;;;;;17.33;7.95;;;5.90;99.90;;;;;;5015536;28;20094;-74
2022/01/15 06:51:47;;;;;;;12.85;7.30;;;5.90;99.90;;;;;;5032221;28;20049;-74
2022/01/15 06:54:13;;;;;;;13.40;7.45;;;5.90;99.90;;;;;;5016306;28;20041;-75
2022/01/15 06:56:41;;;;;;;12.60;6.90;;;5.80;99.90;;;;;;5027524;28;20416;-74
2022/01/15 06:59:07;;;;;;;13.63;7.22;;;5.90;99.90;;;;;;5008605;28;20041;-74
2022/01/15 07:01:32;;;;;;;14.55;7.72;;;5.90;99.90;;;;;;5030975;28;20403;-74
2022/01/15 07:03:58;;;;;;;13.57;7.40;;;5.80;99.90;;;;;;5016133;28;20041;-74
2022/01/15 07:06:27;;;;;;;15.90;7.85;;;5.90;99.90;;;;;;5032038;28;20049;-74
2022/01/15 07:08:52;;;;;;;13.18;7.47;;;5.80;99.90;;;;;;5015146;28;20040;-74
2022/01/15 07:11:21;;;;;;;15.68;7.63;;;5.80;99.90;;;;;;5031761;28;20403;-74
2022/01/15 07:13:47;;;;;;;14.18;7.90;;;5.80;99.90;;;;;;5029045;28;20037;-74
2022/01/15 07:16:13;;;;;;;14.80;8.15;;;5.80;99.90;;;;;;5028570;28;20039;-74
2022/01/15 07:18:39;;;;;;;14.75;8.38;;;5.80;99.90;;;;;;5014281;28;20047;-74
2022/01/15 07:21:04;;;;;;;17.02;7.75;;;5.70;99.90;;;;;;5030214;28;20063;-73
2022/01/15 07:23:30;;;;;;;14.32;8.20;;;5.80;99.90;;;;;;5030798;28;20091;-74
2022/01/15 07:25:56;;;;;;;16.85;9.25;;;5.80;99.90;;;;;;4980982;28;20578;-74
2022/01/15 07:28:24;;;;;;;17.02;9.18;;;5.80;99.90;;;;;;5031435;28;20495;-74
2022/01/15 07:30:50;;;;;;;14.05;8.07;;;5.80;99.90;;;;;;5029956;28;20114;-74
2022/01/15 07:33:16;;;;;;;16.10;8.13;;;5.70;99.90;;;;;;5010840;28;20037;-74
2022/01/15 07:35:43;;;;;;;13.52;7.80;;;5.70;99.90;;;;;;5011737;28;20077;-74
2022/01/15 07:38:13;;;;;;;16.42;8.48;;;5.70;99.90;;;;;;5030685;28;20033;-74
2022/01/15 07:40:39;;;;;;;16.10;9.00;;;5.70;99.90;;;;;;5027502;28;20128;-74
2022/01/15 07:43:05;;;;;;;15.37;8.43;;;5.70;99.90;;;;;;5025490;28;20065;-74
2022/01/15 07:45:31;;;;;;;15.37;9.37;;;5.70;99.90;;;;;;5010930;28;20158;-74
2022/01/15 07:47:57;;;;;;;15.70;9.87;;;5.70;99.90;;;;;;5026651;28;20460;-73
2022/01/15 07:50:26;;;;;;;17.67;10.13;;;5.70;99.90;;;;;;5014118;28;20041;-74
2022/01/15 07:52:53;;;;;;;19.07;10.60;;;5.60;99.90;;;;;;5013543;28;20045;-74
2022/01/15 07:55:19;;;;;;;20.27;10.43;;;5.60;99.90;;;;;;5010141;28;20037;-74
2022/01/15 07:57:45;;;;;;;22.03;11.63;;;5.70;99.90;;;;;;5024377;28;20310;-74
2022/01/15 08:00:16;;;;;;;23.27;12.87;;;5.60;99.90;;;;;;5023604;28;20853;-74
2022/01/15 08:02:42;;;;;;;23.43;12.90;;;5.70;99.90;;;;;;5011334;28;20135;-74
2022/01/15 08:05:09;;;;;;;25.80;12.60;;;5.60;99.90;;;;;;5027984;28;20125;-74
2022/01/15 08:07:36;;;;;;;20.77;12.73;;;5.60;99.90;;;;;;5046136;28;20084;-74
2022/01/15 08:10:04;;;;;;;23.58;13.43;;;5.60;99.90;;;;;;5027098;28;20043;-74
2022/01/15 08:12:30;;;;;;;21.08;11.70;;;5.60;99.90;;;;;;5012211;28;20147;-74
2022/01/15 08:14:56;;;;;;;21.27;13.27;;;5.60;99.90;;;;;;5013772;28;20450;-74
2022/01/15 08:17:22;;;;;;;22.70;13.48;;;5.60;99.90;;;;;;5014054;28;20547;-74
2022/01/15 08:19:48;;;;;;;22.08;13.15;;;5.60;99.90;;;;;;5030456;28;20055;-74
2022/01/15 08:22:13;;;;;;;19.58;12.20;;;5.60;99.90;;;;;;5014255;28;20090;-74
2022/01/15 08:24:39;;;;;;;20.77;12.67;;;5.60;99.90;;;;;;5027094;28;20579;-74
2022/01/15 08:27:05;;;;;;;19.85;12.77;;;5.60;99.90;;;;;;4994845;28;20037;-74
2022/01/15 08:29:31;;;;;;;23.58;13.35;;;5.60;99.90;;;;;;5011773;28;20083;-74
2022/01/15 08:31:57;;;;;;;23.33;14.83;;;5.60;99.90;;;;;;5009144;28;20042;-75
2022/01/15 08:34:23;;;;;;;23.83;14.40;;;5.60;99.90;;;;;;5010787;28;20512;-75
2022/01/15 08:36:50;;;;;;;22.63;13.37;;;5.60;99.90;;;;;;4994966;28;20530;-74
2022/01/15 08:39:15;;;;;;;23.52;14.48;;;5.60;99.90;;;;;;5012868;28;20123;-74
2022/01/15 08:41:48;;;;;;;21.30;13.20;;;5.60;99.90;;;;;;4993620;28;20179;-75
2022/01/15 08:44:20;;;;;;;22.07;13.33;;;5.50;99.90;;;;;;4993475;28;20052;-74
2022/01/15 08:46:46;;;;;;;21.33;12.65;;;5.50;99.90;;;;;;4989373;28;20137;-74
2022/01/15 08:49:11;;;;;;;20.37;12.67;;;5.50;99.90;;;;;;4986328;28;20553;-75
2022/01/15 08:51:37;;;;;;;22.37;12.90;;;5.50;99.90;;;;;;5009547;28;20523;-75
2022/01/15 08:54:03;;;;;;;23.07;12.47;;;5.50;99.90;;;;;;4988471;28;20728;-74
2022/01/15 08:56:29;;;;;;;25.20;13.80;;;5.50;99.90;;;;;;4986412;28;20045;-75
2022/01/15 08:58:55;;;;;;;22.20;14.07;;;5.50;99.90;;;;;;5010299;28;20056;-75
2022/01/15 09:01:21;;;;;;;21.83;13.03;;;5.50;99.90;;;;;;5008870;28;20503;-75
2022/01/15 09:03:46;;;;;;;20.45;12.10;;;5.50;99.90;;;;;;4992251;28;20060;-74
2022/01/15 09:06:13;;;;;;;21.23;12.50;;;5.50;99.90;;;;;;4993527;28;20351;-74
2022/01/15 09:08:39;;;;;;;20.60;12.60;;;5.50;99.90;;;;;;5008607;28;20056;-74
2022/01/15 09:11:06;;;;;;;20.10;12.93;;;5.50;99.90;;;;;;5006514;28;20155;-75
2022/01/15 09:13:31;;;;;;;21.17;12.80;;;5.40;99.90;;;;;;4976142;28;20404;-75
2022/01/15 09:15:57;;;;;;;22.87;13.47;;;5.50;99.90;;;;;;5008310;28;20045;-75
2022/01/15 09:18:23;;;;;;;22.77;13.57;;;5.50;99.90;;;;;;5002337;28;20114;-76
2022/01/15 09:20:49;;;;;;;20.07;12.33;;;5.50;99.90;;;;;;4970592;28;20070;-75
2022/01/15 09:23:18;;;;;;;23.07;13.33;;;5.40;99.90;;;;;;5002943;28;20038;-75
2022/01/15 09:25:44;;;;;;;22.50;13.07;;;5.40;99.90;;;;;;5016683;28;20410;-74
2022/01/15 09:30:57;;;;;;;22.83;13.17;;;5.40;99.90;;;;;;5019918;28;20337;-75
2022/01/15 09:33:23;;;;;;;22.77;13.60;;;5.40;99.90;;;;;;5021509;28;20069;-75
2022/01/15 09:35:49;;;;;;;28.27;14.48;;;5.40;99.90;;;;;;5007018;28;20044;-75
2022/01/15 09:38:20;;;;;;;28.60;15.23;;;5.40;99.90;;;;;;5022952;28;20506;-75
2022/01/15 09:40:46;;;;;;;27.90;15.17;;;5.40;99.90;;;;;;5001198;28;20049;-75
2022/01/15 09:43:14;;;;;;;29.13;16.73;;;5.40;99.90;;;;;;5004909;28;20105;-75
2022/01/15 09:45:41;;;;;;;31.77;17.43;;;5.40;99.90;;;;;;5021580;28;20555;-75
2022/01/15 09:48:08;;;;;;;32.53;16.90;;;5.40;99.90;;;;;;5022727;28;20056;-75
2022/01/15 09:50:42;;;;;;;34.50;17.70;;;5.40;99.90;;;;;;5024725;28;20037;-74
2022/01/15 09:53:10;;;;;;;35.97;17.97;;;5.40;99.90;;;;;;5009802;28;20045;-75
2022/01/15 09:55:37;;;;;;;34.83;17.63;;;5.40;99.90;;;;;;5028883;28;20080;-75
2022/01/15 09:58:03;;;;;;;36.67;18.77;;;5.50;99.90;;;;;;5007835;28;20055;-75
2022/01/15 10:00:30;;;;;;;36.83;18.77;;;5.50;99.90;;;;;;5026649;28;20033;-75
2022/01/15 10:02:56;;;;;;;39.30;19.73;;;5.50;99.90;;;;;;4998663;28;20076;-75
2022/01/15 10:05:23;;;;;;;36.60;18.87;;;5.50;99.90;;;;;;5029136;28;20041;-75
2022/01/15 10:07:55;;;;;;;36.17;18.17;;;5.40;99.90;;;;;;5024692;28;20052;-75
2022/01/15 10:10:22;;;;;;;34.23;18.13;;;5.50;99.90;;;;;;5030674;28;20104;-74
2022/01/15 10:12:48;;;;;;;31.90;17.60;;;5.40;99.90;;;;;;5045589;28;20045;-75
2022/01/15 10:15:16;;;;;;;33.20;18.43;;;5.50;99.90;;;;;;4989063;28;20044;-74
2022/01/15 10:17:43;;;;;;;34.53;19.67;;;5.40;99.90;;;;;;5025709;28;20220;-75
2022/01/15 10:20:21;;;;;;;31.90;19.13;;;5.40;99.90;;;;;;5029589;28;20128;-75
2022/01/15 10:22:50;;;;;;;40.57;20.27;;;5.40;99.90;;;;;;5014359;28;20080;-74
2022/01/15 10:25:21;;;;;;;39.20;20.80;;;5.40;99.90;;;;;;5028207;28;20072;-74
2022/01/15 10:27:53;;;;;;;39.77;21.13;;;5.30;99.90;;;;;;5013609;28;20144;-74
2022/01/15 10:30:23;;;;;;;38.50;21.00;;;5.30;99.90;;;;;;5041122;28;20049;-75
2022/01/15 10:32:51;;;;;;;39.65;21.55;;;5.30;99.90;;;;;;4995250;28;20051;-75
2022/01/15 10:35:18;;;;;;;38.57;21.90;;;5.30;99.90;;;;;;5044684;28;20654;-75
2022/01/15 10:37:48;;;;;;;38.40;21.77;;;5.20;99.90;;;;;;5027396;28;20087;-75
2022/01/15 10:40:14;;;;;;;40.35;21.23;;;5.30;99.90;;;;;;5028902;28;20064;-75
2022/01/15 10:42:40;;;;;;;42.30;22.60;;;5.30;99.90;;;;;;5023762;28;20059;-75
2022/01/15 10:45:12;;;;;;;41.00;22.90;;;5.20;99.90;;;;;;5027664;28;20045;-75
2022/01/15 10:47:46;;;;;;;37.47;19.83;;;5.40;99.90;;;;;;5019271;28;20040;-75
2022/01/15 10:50:22;;;;;;;33.57;19.70;;;5.40;99.90;;;;;;5021208;28;20621;-75
2022/01/15 10:52:47;;;;;;;48.73;38.93;;;5.40;99.90;;;;;;5040876;28;20053;-75
2022/01/15 10:55:16;;;;;;;34.93;19.07;;;5.40;99.90;;;;;;5021639;28;20404;-75
2022/01/15 10:57:53;;;;;;;41.37;29.90;;;5.40;99.90;;;;;;5019316;28;20114;-75
2022/01/15 11:00:22;;;;;;;36.93;21.70;;;5.40;99.90;;;;;;5025358;28;20930;-75
2022/01/15 11:02:57;;;;;;;38.73;26.23;;;5.40;99.90;;;;;;5024020;28;20052;-75
2022/01/15 11:05:23;;;;;;;33.97;19.53;;;5.30;99.90;;;;;;5027050;28;20124;-75
2022/01/15 11:07:49;;;;;;;32.70;18.93;;;5.30;99.90;;;;;;5010032;28;20179;-75
2022/01/15 11:10:18;;;;;;;34.17;20.00;;;5.30;99.90;;;;;;5012872;28;20448;-75
2022/01/15 11:12:43;;;;;;;34.27;21.03;;;5.30;99.90;;;;;;5012197;28;20088;-75
2022/01/15 11:15:09;;;;;;;34.40;20.80;;;5.30;99.90;;;;;;5046637;28;20521;-75
2022/01/15 11:17:36;;;;;;;32.50;19.77;;;5.30;99.90;;;;;;4998976;28;20040;-75
2022/01/15 11:20:05;;;;;;;37.43;22.23;;;5.30;99.90;;;;;;5027293;28;20049;-75
2022/01/15 11:22:33;;;;;;;35.10;21.23;;;5.30;99.90;;;;;;5026789;28;20064;-74
2022/01/15 11:24:59;;;;;;;34.17;21.53;;;5.30;99.90;;;;;;5045831;28;20049;-75
2022/01/15 11:27:32;;;;;;;37.37;22.47;;;5.30;99.90;;;;;;5026633;28;20075;-74
2022/01/15 11:29:58;;;;;;;38.87;23.60;;;5.30;99.90;;;;;;5012657;28;20148;-74
2022/01/15 11:32:26;;;;;;;38.03;23.40;;;5.20;99.90;;;;;;5042932;28;20486;-74
2022/01/15 11:35:07;;;;;;;37.27;22.40;;;5.30;99.90;;;;;;4997320;28;20095;-74
2022/01/15 11:37:52;;;;;;;42.87;23.97;;;5.30;99.90;;;;;;5008374;28;20041;-74
2022/01/15 11:40:40;;;;;;;36.33;24.40;;;5.30;99.90;;;;;;5024375;28;20447;-74
2022/01/15 11:43:25;;;;;;;37.53;23.10;;;5.30;99.90;;;;;;4999463;28;20057;-74
2022/01/15 11:45:53;;;;;;;35.33;23.07;;;5.30;99.90;;;;;;5021736;28;20037;-74
2022/01/15 11:48:33;;;;;;;38.97;24.63;;;5.30;99.90;;;;;;5032378;28;20095;-74
2022/01/15 11:51:14;;;;;;;42.97;26.17;;;5.30;99.90;;;;;;5026386;28;20131;-74
2022/01/15 11:53:49;;;;;;;39.87;24.50;;;5.20;99.90;;;;;;5028855;28;20053;-74
2022/01/15 11:56:20;;;;;;;45.33;26.80;;;5.20;99.90;;;;;;5024969;28;20592;-74
2022/01/15 11:58:46;;;;;;;41.73;25.30;;;5.20;99.90;;;;;;5012440;28;20064;-74
2022/01/15 12:01:41;;;;;;;43.33;26.27;;;5.20;99.90;;;;;;5014267;28;20041;-74
2022/01/15 12:04:28;;;;;;;43.67;27.30;;;5.20;99.90;;;;;;5029644;28;20055;-74
2022/01/15 12:07:06;;;;;;;42.47;27.23;;;5.20;99.90;;;;;;5029545;28;20052;-74
2022/01/15 12:09:39;;;;;;;43.43;28.73;;;5.30;99.90;;;;;;5007589;28;20124;-74
2022/01/15 12:14:56;;;;;;;47.73;30.07;;;5.20;99.90;;;;;;5015390;28;20503;-74
2022/01/15 12:17:31;;;;;;;51.33;30.03;;;5.20;99.90;;;;;;5016901;28;20117;-74
2022/01/15 12:20:25;;;;;;;45.70;28.23;;;5.20;99.90;;;;;;5022196;28;20447;-74
2022/01/15 12:23:01;;;;;;;50.43;29.27;;;5.20;99.90;;;;;;5025646;28;20049;-74
2022/01/15 12:25:27;;;;;;;49.07;29.27;;;5.20;99.90;;;;;;5024593;28;20510;-74
2022/01/15 12:28:00;;;;;;;43.43;27.03;;;5.20;99.90;;;;;;5041823;28;20270;-74
2022/01/15 12:30:37;;;;;;;42.83;26.93;;;5.20;99.90;;;;;;5026595;28;20060;-75
2022/01/15 12:33:05;;;;;;;45.07;27.40;;;5.20;99.90;;;;;;5011317;28;20060;-75
2022/01/15 12:35:33;;;;;;;41.33;25.13;;;5.20;99.90;;;;;;5010264;28;20068;-75
2022/01/15 12:38:10;;;;;;;42.07;25.67;;;5.20;99.90;;;;;;5009605;28;20053;-75
2022/01/15 12:40:48;;;;;;;39.17;24.63;;;5.20;99.90;;;;;;5012876;28;20041;-75
2022/01/15 12:43:24;;;;;;;38.40;24.13;;;5.10;99.90;;;;;;5024027;28;20407;-75
2022/01/15 12:45:52;;;;;;;41.93;25.83;;;5.10;99.90;;;;;;5026698;28;20053;-74
2022/01/15 12:48:22;;;;;;;45.27;27.20;;;5.10;99.90;;;;;;5027879;28;20038;-74
2022/01/15 12:50:56;;;;;;;;;;;5.10;99.90;;;;;;5028521;28;20411;-75
2022/01/15 12:53:28;;;;;;;44.63;26.20;;;5.00;99.90;;;;;;5011359;28;20299;-74
2022/01/15 12:55:57;;;;;;;45.80;28.00;;;5.00;99.90;;;;;;5044669;28;20230;-74
2022/01/15 12:58:25;;;;;;;50.73;28.27;;;5.00;99.90;;;;;;5012144;28;20164;-75
2022/01/15 13:00:52;;;;;;;46.73;27.23;;;5.00;99.90;;;;;;5044475;28;20619;-75
2022/01/15 13:03:24;;;;;;;45.90;27.37;;;5.00;99.90;;;;;;5043848;28;20038;-74
2022/01/15 13:05:59;;;;;;;47.70;27.57;;;5.00;99.90;;;;;;5027116;28;20480;-75
2022/01/15 13:08:41;;;;;;;50.63;29.27;;;5.00;99.90;;;;;;5020629;28;20053;-75
2022/01/15 13:13:43;;;;;;;52.33;30.08;;;5.00;99.90;;;;;;5022038;28;20164;-75
2022/01/15 13:16:30;;;;;;;57.13;29.77;;;5.00;99.90;;;;;;5008621;28;20061;-74